createdAt,value
2024-02-10T00:00:56.327Z,88.30
2024-02-10T00:03:24.575Z,88.40
2024-02-10T00:05:52.309Z,88.10
2024-02-10T00:08:21.965Z,88.30
2024-02-10T00:10:50.021Z,88.20
2024-02-10T00:13:17.979Z,88.00
2024-02-10T00:15:47.171Z,86.60
2024-02-10T00:18:15.210Z,87.80
2024-02-10T00:20:44.005Z,86.50
2024-02-10T00:23:11.971Z,87.60
2024-02-10T00:25:40.478Z,86.70
2024-02-10T00:28:10.668Z,86.70
2024-02-10T00:30:39.582Z,87.80
2024-02-10T00:33:10.501Z,87.80
2024-02-10T00:35:38.457Z,86.10
2024-02-10T00:38:06.608Z,87.30
2024-02-10T00:40:34.575Z,87.60
2024-02-10T00:43:02.415Z,87.60
2024-02-10T00:45:30.193Z,87.90
2024-02-10T00:47:59.298Z,88.00
2024-02-10T00:50:27.138Z,86.70
2024-02-10T00:52:55.030Z,86.30
2024-02-10T00:55:32.727Z,87.60
2024-02-10T00:58:06.123Z,86.50
2024-02-10T01:00:33.950Z,87.80
2024-02-10T01:03:02.307Z,87.70
2024-02-10T01:05:31.771Z,86.40
2024-02-10T01:08:01.909Z,86.60
2024-02-10T01:10:32.721Z,87.80
2024-02-10T01:13:05.218Z,87.80
2024-02-10T01:15:34.703Z,86.70
2024-02-10T01:18:03.215Z,86.60
2024-02-10T01:20:30.959Z,86.70
2024-02-10T01:22:59.418Z,86.60
2024-02-10T01:25:27.466Z,86.50
2024-02-10T01:27:55.737Z,86.40
2024-02-10T01:30:23.502Z,86.40
2024-02-10T01:32:51.214Z,87.80
2024-02-10T01:35:19.821Z,87.80
2024-02-10T01:37:47.745Z,86.50
2024-02-10T01:40:18.170Z,86.40
2024-02-10T01:42:46.692Z,87.60
2024-02-10T01:45:15.523Z,87.70
2024-02-10T01:47:43.777Z,87.50
2024-02-10T01:50:14.276Z,87.50
2024-02-10T01:52:42.329Z,87.30
2024-02-10T01:55:11.985Z,87.30
2024-02-10T01:57:40.944Z,87.60
2024-02-10T02:00:15.538Z,87.30
2024-02-10T02:02:43.659Z,87.30
2024-02-10T02:05:12.133Z,87.00
2024-02-10T02:07:40.404Z,86.60
2024-02-10T02:10:10.706Z,85.90
2024-02-10T02:12:49.865Z,85.60
2024-02-10T02:15:19.441Z,85.40
2024-02-10T02:17:51.203Z,85.20
2024-02-10T02:20:19.749Z,85.20
2024-02-10T02:22:52.270Z,84.70
2024-02-10T02:25:20.585Z,83.50
2024-02-10T02:27:48.528Z,84.60
2024-02-10T02:30:17.669Z,84.40
2024-02-10T02:32:45.557Z,84.20
2024-02-10T02:35:13.694Z,83.40
2024-02-10T02:37:42.991Z,82.60
2024-02-10T02:40:16.802Z,82.60
2024-02-10T02:42:45.318Z,82.10
2024-02-10T02:45:13.314Z,81.90
2024-02-10T02:47:41.346Z,81.50
2024-02-10T02:50:10.927Z,80.80
2024-02-10T02:52:40.108Z,81.50
2024-02-10T02:55:13.213Z,82.00
2024-02-10T02:57:41.496Z,82.20
2024-02-10T03:00:10.062Z,82.20
2024-02-10T03:02:43.423Z,81.90
2024-02-10T03:05:12.524Z,81.80
2024-02-10T03:07:47.662Z,81.20
2024-02-10T03:10:17.747Z,80.00
2024-02-10T03:12:48.201Z,78.90
2024-02-10T03:15:16.344Z,79.60
2024-02-10T03:17:48.648Z,78.50
2024-02-10T03:20:19.700Z,78.50
2024-02-10T03:22:51.523Z,77.80
2024-02-10T03:25:20.590Z,77.70
2024-02-10T03:27:48.565Z,77.10
2024-02-10T03:30:17.123Z,76.80
2024-02-10T03:32:46.205Z,75.80
2024-02-10T03:35:14.235Z,75.80
2024-02-10T03:37:42.353Z,74.80
2024-02-10T03:40:16.229Z,75.40
2024-02-10T03:42:44.388Z,76.10
2024-02-10T03:45:12.394Z,75.20
2024-02-10T03:47:45.153Z,76.20
2024-02-10T03:50:15.519Z,76.10
2024-02-10T03:52:44.338Z,76.00
2024-02-10T03:55:12.393Z,75.20
2024-02-10T03:57:40.595Z,74.60
2024-02-10T04:00:12.548Z,75.10
2024-02-10T04:02:40.378Z,74.50
2024-02-10T04:05:09.188Z,75.10
2024-02-10T04:07:39.971Z,74.90
2024-02-10T04:10:14.132Z,74.00
2024-02-10T04:12:42.165Z,73.20
2024-02-10T04:15:13.363Z,73.20
2024-02-10T04:17:41.423Z,73.30
2024-02-10T04:20:11.568Z,74.20
2024-02-10T04:22:39.692Z,73.80
2024-02-10T04:25:11.671Z,74.40
2024-02-10T04:27:40.120Z,74.50
2024-02-10T04:30:09.074Z,74.20
2024-02-10T04:32:41.082Z,73.30
2024-02-10T04:35:09.074Z,72.80
2024-02-10T04:37:37.516Z,72.60
2024-02-10T04:40:06.052Z,71.90
2024-02-10T04:42:34.093Z,70.60
2024-02-10T04:45:01.978Z,70.00
2024-02-10T04:47:30.096Z,70.40
2024-02-10T04:49:58.117Z,70.60
2024-02-10T04:52:26.186Z,71.80
2024-02-10T04:54:55.113Z,72.50
2024-02-10T04:57:30.032Z,72.90
2024-02-10T04:59:59.988Z,73.50
2024-02-10T05:02:28.497Z,73.90
2024-02-10T05:04:56.497Z,74.70
2024-02-10T05:07:24.376Z,74.80
2024-02-10T05:09:52.230Z,74.40
2024-02-10T05:12:20.072Z,74.60
2024-02-10T05:14:48.052Z,73.70
2024-02-10T05:17:15.957Z,74.10
2024-02-10T05:19:44.082Z,73.50
2024-02-10T05:22:15.682Z,72.60
2024-02-10T05:24:44.161Z,72.20
2024-02-10T05:27:12.085Z,72.30
2024-02-10T05:29:40.144Z,71.70
2024-02-10T05:32:08.147Z,71.90
2024-02-10T05:34:36.089Z,71.10
2024-02-10T05:37:05.462Z,71.40
2024-02-10T05:39:33.142Z,70.80
2024-02-10T05:42:02.317Z,70.40
2024-02-10T05:44:30.021Z,70.30
2024-02-10T05:46:57.590Z,69.30
2024-02-10T05:49:27.265Z,69.40
2024-02-10T05:51:55.080Z,69.60
2024-02-10T05:54:23.047Z,69.90
2024-02-10T05:56:51.002Z,70.30
2024-02-10T05:59:21.024Z,70.20
2024-02-10T06:01:49.169Z,70.00
2024-02-10T06:04:17.186Z,70.00
2024-02-10T06:06:49.254Z,70.30
2024-02-10T06:09:17.146Z,70.00
2024-02-10T06:11:45.084Z,69.40
2024-02-10T06:14:12.722Z,69.30
2024-02-10T06:16:42.328Z,69.90
2024-02-10T06:19:10.231Z,69.40
2024-02-10T06:21:38.135Z,70.00
2024-02-10T06:24:05.964Z,69.60
2024-02-10T06:26:38.681Z,69.20
2024-02-10T06:29:07.068Z,69.60
2024-02-10T06:31:35.049Z,69.50
2024-02-10T06:34:03.282Z,69.50
2024-02-10T06:36:32.150Z,69.10
2024-02-10T06:38:59.887Z,68.80
2024-02-10T06:41:32.165Z,68.50
2024-02-10T06:43:59.934Z,68.50
2024-02-10T06:46:27.690Z,69.00
2024-02-10T06:48:55.364Z,69.60
2024-02-10T06:51:23.328Z,68.90
2024-02-10T06:53:51.044Z,69.20
2024-02-10T06:56:19.738Z,69.50
2024-02-10T06:58:50.782Z,68.40
2024-02-10T07:01:19.262Z,68.30
2024-02-10T07:03:47.571Z,68.30
2024-02-10T07:06:19.661Z,67.90
2024-02-10T07:08:47.766Z,68.10
2024-02-10T07:11:15.474Z,68.20
2024-02-10T07:13:43.352Z,68.40
2024-02-10T07:16:11.086Z,68.40
2024-02-10T07:18:40.562Z,68.30
2024-02-10T07:21:08.172Z,68.40
2024-02-10T07:23:36.313Z,68.60
2024-02-10T07:26:06.878Z,68.10
2024-02-10T07:28:36.281Z,67.50
2024-02-10T07:31:04.507Z,68.00
2024-02-10T07:33:32.455Z,66.60
2024-02-10T07:36:02.153Z,66.80
2024-02-10T07:38:29.874Z,67.40
2024-02-10T07:40:57.651Z,67.20
2024-02-10T07:43:25.546Z,66.70
2024-02-10T07:45:54.458Z,66.80
2024-02-10T07:48:24.197Z,66.70
2024-02-10T07:50:54.212Z,66.80
2024-02-10T07:53:22.072Z,66.90
2024-02-10T07:55:52.554Z,66.10
2024-02-10T07:58:20.512Z,66.20
2024-02-10T08:00:51.229Z,67.10
2024-02-10T08:03:21.045Z,66.70
2024-02-10T08:05:53.748Z,66.70
2024-02-10T08:08:25.991Z,66.60
2024-02-10T08:10:54.404Z,66.70
2024-02-10T08:13:26.413Z,66.40
2024-02-10T08:15:56.782Z,66.20
2024-02-10T08:18:25.589Z,65.80
2024-02-10T08:20:54.888Z,66.20
2024-02-10T08:23:22.579Z,66.00
2024-02-10T08:25:52.476Z,66.10
2024-02-10T08:28:20.586Z,66.10
2024-02-10T08:30:48.489Z,66.40
2024-02-10T08:33:17.671Z,66.20
2024-02-10T08:35:47.956Z,66.00
2024-02-10T08:38:18.500Z,66.40
2024-02-10T08:40:46.223Z,65.70
2024-02-10T08:43:15.328Z,66.30
2024-02-10T08:45:43.121Z,65.80
2024-02-10T08:48:12.683Z,64.70
2024-02-10T08:50:42.674Z,64.40
2024-02-10T08:53:10.804Z,65.10
2024-02-10T08:55:38.764Z,64.20
2024-02-10T08:58:07.165Z,64.40
2024-02-10T09:00:36.251Z,64.40
2024-02-10T09:03:08.026Z,65.20
2024-02-10T09:05:35.728Z,64.80
2024-02-10T09:08:03.501Z,64.90
2024-02-10T09:10:31.287Z,65.00
2024-02-10T09:13:03.333Z,64.70
2024-02-10T09:15:32.087Z,65.00
2024-02-10T09:18:00.075Z,65.40
2024-02-10T09:20:29.079Z,65.50
2024-02-10T09:22:56.923Z,65.30
2024-02-10T09:25:28.541Z,65.20
2024-02-10T09:28:00.771Z,64.90
2024-02-10T09:30:28.429Z,65.20
2024-02-10T09:32:56.191Z,65.40
2024-02-10T09:35:31.060Z,65.30
2024-02-10T09:38:02.128Z,65.60
2024-02-10T09:40:30.318Z,65.30
2024-02-10T09:43:03.317Z,64.60
2024-02-10T09:45:35.862Z,64.50
2024-02-10T09:48:07.653Z,63.40
2024-02-10T09:50:38.409Z,63.10
2024-02-10T09:53:06.852Z,63.90
2024-02-10T09:55:34.573Z,63.00
2024-02-10T09:58:06.004Z,63.60
2024-02-10T10:00:38.481Z,63.50
2024-02-10T10:03:06.626Z,63.40
2024-02-10T10:05:44.541Z,63.20
2024-02-10T10:08:13.512Z,62.20
2024-02-10T10:10:42.419Z,62.40
2024-02-10T10:13:11.022Z,62.20
2024-02-10T10:15:41.331Z,61.40
2024-02-10T10:18:17.127Z,61.50
2024-02-10T10:20:49.255Z,60.90
2024-02-10T10:23:17.992Z,60.10
2024-02-10T10:25:49.554Z,59.70
2024-02-10T10:28:20.489Z,58.60
2024-02-10T10:30:49.242Z,59.50
2024-02-10T10:33:23.042Z,59.50
2024-02-10T10:35:51.968Z,59.10
2024-02-10T10:38:24.171Z,60.20
2024-02-10T10:40:55.955Z,59.90
2024-02-10T10:43:25.637Z,59.00
2024-02-10T10:45:54.010Z,59.60
2024-02-10T10:48:22.109Z,60.40
2024-02-10T10:50:57.207Z,57.40
2024-02-10T10:53:29.799Z,56.70
2024-02-10T10:56:02.204Z,56.30
2024-02-10T10:58:41.273Z,57.30
2024-02-10T11:01:16.469Z,57.50
2024-02-10T11:03:46.080Z,61.20
2024-02-10T11:06:14.415Z,61.20
2024-02-10T11:08:42.334Z,60.90
2024-02-10T11:11:14.094Z,59.10
2024-02-10T11:13:41.986Z,57.90
2024-02-10T11:16:14.775Z,56.60
2024-02-10T11:19:03.064Z,53.60
2024-02-10T11:21:32.991Z,54.40
2024-02-10T11:24:13.008Z,55.60
2024-02-10T11:26:41.515Z,52.10
2024-02-10T11:29:11.219Z,51.90
2024-02-10T11:31:42.441Z,52.90
2024-02-10T11:34:21.682Z,53.90
2024-02-10T11:36:55.803Z,53.30
2024-02-10T11:39:26.321Z,53.60
2024-02-10T11:41:59.768Z,54.20
2024-02-10T11:44:31.539Z,53.80
2024-02-10T11:47:01.861Z,53.90
2024-02-10T11:49:30.149Z,53.60
2024-02-10T11:51:59.741Z,52.70
2024-02-10T11:54:30.745Z,53.40
2024-02-10T11:57:02.766Z,53.30
2024-02-10T11:59:34.286Z,52.60
2024-02-10T12:02:03.115Z,52.70
2024-02-10T12:04:34.630Z,52.20
2024-02-10T12:07:03.245Z,52.60
2024-02-10T12:09:31.369Z,53.30
2024-02-10T12:12:02.388Z,53.30
2024-02-10T12:14:31.677Z,53.40
2024-02-10T12:17:07.782Z,53.50
2024-02-10T12:19:43.324Z,52.40
2024-02-10T12:22:12.168Z,50.70
2024-02-10T12:24:40.291Z,51.20
2024-02-10T12:27:08.586Z,50.90
2024-02-10T12:29:42.430Z,47.80
2024-02-10T12:32:11.737Z,49.30
2024-02-10T12:34:39.710Z,50.50
2024-02-10T12:37:08.112Z,51.30
2024-02-10T12:39:35.828Z,51.00
2024-02-10T12:42:03.659Z,51.90
2024-02-10T12:44:33.524Z,51.10
2024-02-10T12:47:03.404Z,50.70
2024-02-10T12:49:31.394Z,51.00
2024-02-10T12:51:59.301Z,49.40
2024-02-10T12:54:29.581Z,49.10
2024-02-10T12:56:57.928Z,49.00
2024-02-10T12:59:25.823Z,47.70
2024-02-10T13:01:57.658Z,47.40
2024-02-10T13:04:28.068Z,46.60
2024-02-10T13:06:59.095Z,46.10
2024-02-10T13:09:26.869Z,46.30
2024-02-10T13:11:54.926Z,45.70
2024-02-10T13:14:22.752Z,45.80
2024-02-10T13:16:50.735Z,45.90
2024-02-10T13:19:18.650Z,46.80
2024-02-10T13:21:47.084Z,46.40
2024-02-10T13:24:16.193Z,46.80
2024-02-10T13:26:44.094Z,47.30
2024-02-10T13:29:12.610Z,48.00
2024-02-10T13:31:40.468Z,47.80
2024-02-10T13:34:15.776Z,47.60
2024-02-10T13:36:53.168Z,47.40
2024-02-10T13:39:39.217Z,47.50
2024-02-10T13:42:25.864Z,47.00
2024-02-10T13:45:11.918Z,46.30
2024-02-10T13:47:58.167Z,47.40
2024-02-10T13:50:44.445Z,47.30
2024-02-10T13:53:30.715Z,47.80
2024-02-10T13:56:16.692Z,47.30
2024-02-10T13:58:44.303Z,47.90
2024-02-10T14:01:14.504Z,48.70
2024-02-10T14:04:02.288Z,49.60
2024-02-10T14:06:36.262Z,50.10
2024-02-10T14:09:08.023Z,48.90
2024-02-10T14:11:39.804Z,50.00
2024-02-10T14:14:08.223Z,50.70
2024-02-10T14:16:39.351Z,50.70
2024-02-10T14:19:15.688Z,51.20
2024-02-10T14:21:46.084Z,51.80
2024-02-10T14:24:17.836Z,50.70
2024-02-10T14:27:03.008Z,50.40
2024-02-10T14:29:35.431Z,50.90
2024-02-10T14:32:14.620Z,50.30
2024-02-10T14:35:00.604Z,50.40
2024-02-10T14:37:30.830Z,50.10
2024-02-10T14:40:01.741Z,48.00
2024-02-10T14:42:29.925Z,48.20
2024-02-10T14:44:57.670Z,47.60
2024-02-10T14:47:26.748Z,46.70
2024-02-10T14:49:54.878Z,46.60
2024-02-10T14:52:24.102Z,46.40
2024-02-10T14:54:52.284Z,44.90
2024-02-10T14:57:23.348Z,45.20
2024-02-10T14:59:52.456Z,46.10
2024-02-10T15:02:24.221Z,44.70
2024-02-10T15:04:52.777Z,45.40
2024-02-10T15:07:23.851Z,45.70
2024-02-10T15:09:52.647Z,45.90
2024-02-10T15:12:20.330Z,45.30
2024-02-10T15:14:48.061Z,45.50
2024-02-10T15:17:18.473Z,46.00
2024-02-10T15:19:46.928Z,45.30
2024-02-10T15:22:16.694Z,46.00
2024-02-10T15:24:45.296Z,45.30
2024-02-10T15:27:14.424Z,44.90
2024-02-10T15:29:42.167Z,45.20
2024-02-10T15:32:11.471Z,45.10
2024-02-10T15:34:48.094Z,45.50
2024-02-10T15:37:25.750Z,45.50
2024-02-10T15:39:53.725Z,45.70
2024-02-10T15:42:21.657Z,44.90
2024-02-10T15:44:49.565Z,45.00
2024-02-10T15:47:19.797Z,44.00
2024-02-10T15:49:48.310Z,45.30
2024-02-10T15:52:17.237Z,44.90
2024-02-10T15:54:44.679Z,44.30
2024-02-10T15:57:12.362Z,44.40
2024-02-10T15:59:40.176Z,44.70
2024-02-10T16:02:11.190Z,44.90
2024-02-10T16:04:43.811Z,45.30
2024-02-10T16:07:11.935Z,44.90
2024-02-10T16:09:39.590Z,44.90
2024-02-10T16:12:10.240Z,45.70
2024-02-10T16:14:38.449Z,45.30
2024-02-10T16:17:06.183Z,45.70
2024-02-10T16:19:41.242Z,44.50
2024-02-10T16:22:09.025Z,45.40
2024-02-10T16:24:36.792Z,46.40
2024-02-10T16:27:04.814Z,46.90
2024-02-10T16:29:32.432Z,47.10
2024-02-10T16:32:00.161Z,47.10
2024-02-10T16:34:31.362Z,48.00
2024-02-10T16:37:00.279Z,48.10
2024-02-10T16:39:29.131Z,47.10
2024-02-10T16:41:57.971Z,46.50
2024-02-10T16:44:26.408Z,47.00
2024-02-10T16:47:01.157Z,47.60
2024-02-10T16:49:34.324Z,47.20
2024-02-10T16:52:05.079Z,47.40
2024-02-10T16:54:32.839Z,46.40
2024-02-10T16:57:02.060Z,46.00
2024-02-10T16:59:29.884Z,46.60
2024-02-10T17:01:57.970Z,46.80
2024-02-10T17:04:25.891Z,46.60
2024-02-10T17:06:55.857Z,46.20
2024-02-10T17:09:24.385Z,47.10
2024-02-10T17:11:52.210Z,47.20
2024-02-10T17:14:20.014Z,47.40
2024-02-10T17:16:47.847Z,47.30
2024-02-10T17:19:20.223Z,47.40
2024-02-10T17:21:53.257Z,46.90
2024-02-10T17:24:22.034Z,47.00
2024-02-10T17:26:49.855Z,47.50
2024-02-10T17:29:17.985Z,46.10
2024-02-10T17:31:48.121Z,47.10
2024-02-10T17:34:16.033Z,46.70
2024-02-10T17:36:44.145Z,46.60
2024-02-10T17:39:12.200Z,46.10
2024-02-10T17:41:45.342Z,46.80
2024-02-10T17:44:14.943Z,46.60
2024-02-10T17:46:49.955Z,47.00
2024-02-10T17:49:19.348Z,46.70
2024-02-10T17:51:47.679Z,47.40
2024-02-10T17:54:21.072Z,47.10
2024-02-10T17:56:50.066Z,46.70
2024-02-10T17:59:20.286Z,46.90
2024-02-10T18:01:48.664Z,47.30
2024-02-10T18:04:16.757Z,47.50
2024-02-10T18:06:45.690Z,47.00
2024-02-10T18:09:14.350Z,47.40
2024-02-10T18:11:45.902Z,47.10
2024-02-10T18:14:17.991Z,47.30
2024-02-10T18:16:47.459Z,47.60
2024-02-10T18:19:16.076Z,47.60
2024-02-10T18:21:45.417Z,47.40
2024-02-10T18:24:13.815Z,47.30
2024-02-10T18:26:41.614Z,47.30
2024-02-10T18:29:09.790Z,47.10
2024-02-10T18:31:38.249Z,47.50
2024-02-10T18:34:07.771Z,46.40
2024-02-10T18:36:36.024Z,46.40
2024-02-10T18:39:05.047Z,46.10
2024-02-10T18:41:35.522Z,46.40
2024-02-10T18:44:04.903Z,45.70
2024-02-10T18:46:34.032Z,46.20
2024-02-10T18:49:02.645Z,45.30
2024-02-10T18:51:31.476Z,45.80
2024-02-10T18:54:01.153Z,46.00
2024-02-10T18:56:29.323Z,46.30
2024-02-10T18:58:57.223Z,46.70
2024-02-10T19:01:27.577Z,46.70
2024-02-10T19:03:58.199Z,47.00
2024-02-10T19:06:26.897Z,46.60
2024-02-10T19:08:56.497Z,47.60
2024-02-10T19:11:24.867Z,47.00
2024-02-10T19:13:55.916Z,47.20
2024-02-10T19:16:24.289Z,47.90
2024-02-10T19:18:52.405Z,47.60
2024-02-10T19:21:21.056Z,47.60
2024-02-10T19:23:50.268Z,48.00
2024-02-10T19:26:21.687Z,48.00
2024-02-10T19:28:50.184Z,48.00
2024-02-10T19:31:20.190Z,47.60
2024-02-10T19:33:51.020Z,48.80
2024-02-10T19:36:20.608Z,48.90
2024-02-10T19:38:48.608Z,49.60
2024-02-10T19:41:18.574Z,48.80
2024-02-10T19:43:46.759Z,49.70
2024-02-10T19:46:16.785Z,47.70
2024-02-10T19:48:49.028Z,47.20
2024-02-10T19:51:18.514Z,47.00
2024-02-10T19:53:48.506Z,45.30
2024-02-10T19:56:18.680Z,45.20
2024-02-10T19:58:50.767Z,45.70
2024-02-10T20:01:21.767Z,45.30
2024-02-10T20:03:53.106Z,43.90
2024-02-10T20:06:23.805Z,45.60
2024-02-10T20:08:54.055Z,45.50
2024-02-10T20:11:23.959Z,45.90
2024-02-10T20:13:52.721Z,46.00
2024-02-10T20:16:20.740Z,46.40
2024-02-10T20:18:48.911Z,45.90
2024-02-10T20:21:18.006Z,45.90
2024-02-10T20:23:46.151Z,45.10
2024-02-10T20:26:14.700Z,45.50
2024-02-10T20:28:44.018Z,46.40
2024-02-10T20:31:30.453Z,46.30
2024-02-10T20:34:00.502Z,46.90
2024-02-10T20:36:28.502Z,46.90
2024-02-10T20:38:58.224Z,47.20
2024-02-10T20:41:26.028Z,47.40
2024-02-10T20:43:53.838Z,47.60
2024-02-10T20:46:23.017Z,48.20
2024-02-10T20:48:50.910Z,48.00
2024-02-10T20:51:18.820Z,48.20
2024-02-10T20:53:47.476Z,47.80
2024-02-10T20:56:17.291Z,47.30
2024-02-10T20:58:45.534Z,47.30
2024-02-10T21:01:13.666Z,47.60
2024-02-10T21:03:41.592Z,48.00
2024-02-10T21:06:10.044Z,48.30
2024-02-10T21:08:40.326Z,47.60
2024-02-10T21:11:08.499Z,48.10
2024-02-10T21:13:36.554Z,48.50
2024-02-10T21:16:07.925Z,49.00
2024-02-10T21:18:36.054Z,50.50
2024-02-10T21:21:05.032Z,50.30
2024-02-10T21:23:36.318Z,50.40
2024-02-10T21:26:04.243Z,50.90
2024-02-10T21:28:35.358Z,51.30
2024-02-10T21:31:06.596Z,51.10
2024-02-10T21:33:34.883Z,51.50
2024-02-10T21:36:05.680Z,51.90
2024-02-10T21:38:33.474Z,51.90
2024-02-10T21:41:01.383Z,52.20
2024-02-10T21:43:29.387Z,52.60
2024-02-10T21:45:58.572Z,52.90
2024-02-10T21:48:26.498Z,53.50
2024-02-10T21:50:55.292Z,53.20
2024-02-10T21:53:23.095Z,53.50
2024-02-10T21:55:52.042Z,53.80
2024-02-10T21:58:20.229Z,54.30
2024-02-10T22:00:49.537Z,53.50
2024-02-10T22:03:17.754Z,54.20
2024-02-10T22:05:45.699Z,55.20
2024-02-10T22:08:13.514Z,55.70
2024-02-10T22:10:41.362Z,55.30
2024-02-10T22:13:11.350Z,54.70
2024-02-10T22:15:39.190Z,54.60
2024-02-10T22:18:15.060Z,52.90
2024-02-10T22:20:45.586Z,53.60
2024-02-10T22:23:14.076Z,53.70
2024-02-10T22:25:46.268Z,54.30
2024-02-10T22:28:14.314Z,53.70
2024-02-10T22:30:42.261Z,53.70
2024-02-10T22:33:10.544Z,53.60
2024-02-10T22:35:39.106Z,53.70
2024-02-10T22:38:08.766Z,53.10
2024-02-10T22:40:41.926Z,53.30
2024-02-10T22:43:11.352Z,52.80
2024-02-10T22:45:40.313Z,52.90
2024-02-10T22:48:12.264Z,51.70
2024-02-10T22:50:43.900Z,52.30
2024-02-10T22:53:14.982Z,51.60
2024-02-10T22:55:47.004Z,51.20
2024-02-10T22:58:18.376Z,51.90
2024-02-10T23:00:54.713Z,51.30
2024-02-10T23:03:22.781Z,51.60
2024-02-10T23:05:52.153Z,51.50
2024-02-10T23:08:21.823Z,51.90
2024-02-10T23:10:51.925Z,51.80
2024-02-10T23:13:23.039Z,51.50
2024-02-10T23:15:53.117Z,51.60
2024-02-10T23:18:25.874Z,49.50
2024-02-10T23:20:54.562Z,50.30
2024-02-10T23:23:29.456Z,50.20
2024-02-10T23:25:58.626Z,50.20
2024-02-10T23:28:26.815Z,50.40
2024-02-10T23:31:01.541Z,50.70
2024-02-10T23:33:33.737Z,50.60
2024-02-10T23:36:20.602Z,49.60
2024-02-10T23:38:53.963Z,50.60
2024-02-10T23:41:22.055Z,51.70
2024-02-10T23:43:50.058Z,51.30
2024-02-10T23:46:18.580Z,51.20
2024-02-10T23:48:54.137Z,51.50
2024-02-10T23:51:25.737Z,52.40
2024-02-10T23:53:54.335Z,52.90
2024-02-10T23:56:22.252Z,51.40
2024-02-10T23:58:50.556Z,51.70
